sensor_id;sensor_type;location;lat;lon;timestamp;P1;durP1;ratioP1;P2;durP2;ratioP2
7191;SDS011;3637;51.494;11.958;2023-02-04T00:02:31;1.20;;;1.20;;
7191;SDS011;3637;51.494;11.958;2023-02-04T00:05:33;1.90;;;1.70;;
7191;SDS011;3637;51.494;11.958;2023-02-04T00:08:35;1.30;;;1.30;;
7191;SDS011;3637;51.494;11.958;2023-02-04T00:11:37;1.40;;;1.30;;
7191;SDS011;3637;51.494;11.958;2023-02-04T00:14:40;1.40;;;1.30;;
7191;SDS011;3637;51.494;11.958;2023-02-04T00:17:42;1.60;;;1.50;;
7191;SDS011;3637;51.494;11.958;2023-02-04T00:20:44;1.50;;;1.30;;
7191;SDS011;3637;51.494;11.958;2023-02-04T00:23:46;1.10;;;1.10;;
7191;SDS011;3637;51.494;11.958;2023-02-04T00:26:50;1.50;;;1.40;;
7191;SDS011;3637;51.494;11.958;2023-02-04T00:29:53;1.30;;;1.20;;
7191;SDS011;3637;51.494;11.958;2023-02-04T00:32:55;1.27;;;1.23;;
7191;SDS011;3637;51.494;11.958;2023-02-04T00:35:57;1.50;;;1.40;;
7191;SDS011;3637;51.494;11.958;2023-02-04T00:38:59;1.33;;;1.23;;
7191;SDS011;3637;51.494;11.958;2023-02-04T00:42:00;1.40;;;1.30;;
7191;SDS011;3637;51.494;11.958;2023-02-04T00:45:04;1.93;;;1.30;;
7191;SDS011;3637;51.494;11.958;2023-02-04T00:48:06;1.50;;;1.40;;
7191;SDS011;3637;51.494;11.958;2023-02-04T00:51:07;1.47;;;1.37;;
7191;SDS011;3637;51.494;11.958;2023-02-04T00:54:09;1.20;;;1.20;;
7191;SDS011;3637;51.494;11.958;2023-02-04T00:57:11;1.57;;;1.47;;
7191;SDS011;3637;51.494;11.958;2023-02-04T01:00:16;3.33;;;1.97;;
7191;SDS011;3637;51.494;11.958;2023-02-04T01:03:18;1.30;;;1.30;;
7191;SDS011;3637;51.494;11.958;2023-02-04T01:06:20;1.67;;;1.57;;
7191;SDS011;3637;51.494;11.958;2023-02-04T01:09:22;1.50;;;1.40;;
7191;SDS011;3637;51.494;11.958;2023-02-04T01:12:24;1.50;;;1.40;;
7191;SDS011;3637;51.494;11.958;2023-02-04T01:15:29;4.70;;;1.40;;
7191;SDS011;3637;51.494;11.958;2023-02-04T01:18:30;1.67;;;1.57;;
7191;SDS011;3637;51.494;11.958;2023-02-04T01:21:32;1.40;;;1.30;;
7191;SDS011;3637;51.494;11.958;2023-02-04T01:24:34;1.60;;;1.40;;
7191;SDS011;3637;51.494;11.958;2023-02-04T01:27:36;1.50;;;1.40;;
7191;SDS011;3637;51.494;11.958;2023-02-04T01:30:39;1.43;;;1.33;;
7191;SDS011;3637;51.494;11.958;2023-02-04T01:33:41;1.50;;;1.40;;
7191;SDS011;3637;51.494;11.958;2023-02-04T01:36:43;2.53;;;1.77;;
7191;SDS011;3637;51.494;11.958;2023-02-04T01:39:45;1.53;;;1.43;;
7191;SDS011;3637;51.494;11.958;2023-02-04T01:42:46;1.33;;;1.30;;
7191;SDS011;3637;51.494;11.958;2023-02-04T01:45:50;1.60;;;1.50;;
7191;SDS011;3637;51.494;11.958;2023-02-04T01:48:52;1.50;;;1.40;;
7191;SDS011;3637;51.494;11.958;2023-02-04T01:51:54;1.60;;;1.30;;
7191;SDS011;3637;51.494;11.958;2023-02-04T01:54:56;1.43;;;1.40;;
7191;SDS011;3637;51.494;11.958;2023-02-04T01:57:57;1.27;;;1.17;;
7191;SDS011;3637;51.494;11.958;2023-02-04T02:01:02;1.40;;;1.30;;
7191;SDS011;3637;51.494;11.958;2023-02-04T02:04:12;1.40;;;1.30;;
7191;SDS011;3637;51.494;11.958;2023-02-04T02:07:15;1.83;;;1.53;;
7191;SDS011;3637;51.494;11.958;2023-02-04T02:10:17;1.60;;;1.50;;
7191;SDS011;3637;51.494;11.958;2023-02-04T02:13:19;2.23;;;1.67;;
7191;SDS011;3637;51.494;11.958;2023-02-04T02:16:22;1.63;;;1.53;;
7191;SDS011;3637;51.494;11.958;2023-02-04T02:19:25;1.50;;;1.40;;
7191;SDS011;3637;51.494;11.958;2023-02-04T02:22:29;1.70;;;1.60;;
7191;SDS011;3637;51.494;11.958;2023-02-04T02:25:36;1.67;;;1.33;;
7191;SDS011;3637;51.494;11.958;2023-02-04T02:28:38;1.60;;;1.50;;
7191;SDS011;3637;51.494;11.958;2023-02-04T02:31:40;1.60;;;1.50;;
7191;SDS011;3637;51.494;11.958;2023-02-04T02:34:42;2.17;;;1.97;;
7191;SDS011;3637;51.494;11.958;2023-02-04T02:37:46;1.83;;;1.67;;
7191;SDS011;3637;51.494;11.958;2023-02-04T02:40:49;1.70;;;1.60;;
7191;SDS011;3637;51.494;11.958;2023-02-04T02:43:51;1.80;;;1.70;;
7191;SDS011;3637;51.494;11.958;2023-02-04T02:46:53;1.70;;;1.60;;
7191;SDS011;3637;51.494;11.958;2023-02-04T02:49:55;2.17;;;1.80;;
7191;SDS011;3637;51.494;11.958;2023-02-04T02:52:57;1.63;;;1.53;;
7191;SDS011;3637;51.494;11.958;2023-02-04T02:56:00;1.90;;;1.80;;
7191;SDS011;3637;51.494;11.958;2023-02-04T02:59:13;1.97;;;1.70;;
7191;SDS011;3637;51.494;11.958;2023-02-04T03:02:17;2.00;;;1.80;;
7191;SDS011;3637;51.494;11.958;2023-02-04T03:05:21;1.57;;;1.47;;
7191;SDS011;3637;51.494;11.958;2023-02-04T03:08:24;2.03;;;1.53;;
7191;SDS011;3637;51.494;11.958;2023-02-04T03:11:28;1.57;;;1.47;;
7191;SDS011;3637;51.494;11.958;2023-02-04T03:14:31;1.90;;;1.80;;
7191;SDS011;3637;51.494;11.958;2023-02-04T03:17:34;1.77;;;1.50;;
7191;SDS011;3637;51.494;11.958;2023-02-04T03:20:36;1.87;;;1.77;;
7191;SDS011;3637;51.494;11.958;2023-02-04T03:23:39;2.10;;;1.60;;
7191;SDS011;3637;51.494;11.958;2023-02-04T03:26:42;1.80;;;1.70;;
7191;SDS011;3637;51.494;11.958;2023-02-04T03:29:47;2.37;;;1.70;;
7191;SDS011;3637;51.494;11.958;2023-02-04T03:32:49;1.70;;;1.60;;
7191;SDS011;3637;51.494;11.958;2023-02-04T03:35:51;1.77;;;1.67;;
7191;SDS011;3637;51.494;11.958;2023-02-04T03:38:54;2.43;;;2.13;;
7191;SDS011;3637;51.494;11.958;2023-02-04T03:41:57;1.80;;;1.70;;
7191;SDS011;3637;51.494;11.958;2023-02-04T03:45:00;2.50;;;1.90;;
7191;SDS011;3637;51.494;11.958;2023-02-04T03:48:02;1.70;;;1.60;;
7191;SDS011;3637;51.494;11.958;2023-02-04T03:51:04;2.20;;;2.00;;
7191;SDS011;3637;51.494;11.958;2023-02-04T03:54:06;2.20;;;1.90;;
7191;SDS011;3637;51.494;11.958;2023-02-04T03:57:09;1.73;;;1.63;;
7191;SDS011;3637;51.494;11.958;2023-02-04T04:00:12;1.70;;;1.60;;
7191;SDS011;3637;51.494;11.958;2023-02-04T04:03:15;2.10;;;1.90;;
7191;SDS011;3637;51.494;11.958;2023-02-04T04:06:16;2.87;;;1.90;;
7191;SDS011;3637;51.494;11.958;2023-02-04T04:09:18;2.00;;;1.80;;
7191;SDS011;3637;51.494;11.958;2023-02-04T04:12:21;2.00;;;1.80;;
7191;SDS011;3637;51.494;11.958;2023-02-04T04:15:23;1.67;;;1.57;;
7191;SDS011;3637;51.494;11.958;2023-02-04T04:18:25;1.87;;;1.73;;
7191;SDS011;3637;51.494;11.958;2023-02-04T04:21:27;1.70;;;1.60;;
7191;SDS011;3637;51.494;11.958;2023-02-04T04:24:29;2.10;;;1.90;;
7191;SDS011;3637;51.494;11.958;2023-02-04T04:27:32;2.60;;;1.83;;
7191;SDS011;3637;51.494;11.958;2023-02-04T04:30:34;2.57;;;2.07;;
7191;SDS011;3637;51.494;11.958;2023-02-04T04:33:36;1.87;;;1.77;;
7191;SDS011;3637;51.494;11.958;2023-02-04T04:36:38;5.07;;;1.87;;
7191;SDS011;3637;51.494;11.958;2023-02-04T04:39:40;5.43;;;2.63;;
7191;SDS011;3637;51.494;11.958;2023-02-04T04:42:43;2.00;;;1.80;;
7191;SDS011;3637;51.494;11.958;2023-02-04T04:45:45;1.90;;;1.80;;
7191;SDS011;3637;51.494;11.958;2023-02-04T04:48:47;5.10;;;2.00;;
7191;SDS011;3637;51.494;11.958;2023-02-04T04:51:48;1.80;;;1.70;;
7191;SDS011;3637;51.494;11.958;2023-02-04T04:54:50;2.50;;;2.30;;
7191;SDS011;3637;51.494;11.958;2023-02-04T04:57:54;2.20;;;2.00;;
7191;SDS011;3637;51.494;11.958;2023-02-04T05:00:56;2.13;;;1.90;;
7191;SDS011;3637;51.494;11.958;2023-02-04T05:03:58;4.53;;;2.20;;
7191;SDS011;3637;51.494;11.958;2023-02-04T05:06:59;2.10;;;1.90;;
7191;SDS011;3637;51.494;11.958;2023-02-04T05:10:01;3.87;;;2.30;;
7191;SDS011;3637;51.494;11.958;2023-02-04T05:13:05;1.90;;;1.73;;
7191;SDS011;3637;51.494;11.958;2023-02-04T05:16:07;3.70;;;2.00;;
7191;SDS011;3637;51.494;11.958;2023-02-04T05:19:10;2.00;;;1.80;;
7191;SDS011;3637;51.494;11.958;2023-02-04T05:22:12;1.87;;;1.73;;
7191;SDS011;3637;51.494;11.958;2023-02-04T05:25:14;3.10;;;2.20;;
7191;SDS011;3637;51.494;11.958;2023-02-04T05:28:18;1.80;;;1.67;;
7191;SDS011;3637;51.494;11.958;2023-02-04T05:31:19;1.70;;;1.60;;
7191;SDS011;3637;51.494;11.958;2023-02-04T05:34:24;3.13;;;1.97;;
7191;SDS011;3637;51.494;11.958;2023-02-04T05:37:25;2.07;;;1.60;;
7191;SDS011;3637;51.494;11.958;2023-02-04T05:40:30;2.07;;;1.87;;
7191;SDS011;3637;51.494;11.958;2023-02-04T05:43:33;1.80;;;1.70;;
7191;SDS011;3637;51.494;11.958;2023-02-04T05:46:35;1.77;;;1.67;;
7191;SDS011;3637;51.494;11.958;2023-02-04T05:49:39;2.53;;;2.20;;
7191;SDS011;3637;51.494;11.958;2023-02-04T05:52:41;3.07;;;1.90;;
7191;SDS011;3637;51.494;11.958;2023-02-04T05:55:43;1.70;;;1.60;;
7191;SDS011;3637;51.494;11.958;2023-02-04T05:58:46;1.70;;;1.60;;
7191;SDS011;3637;51.494;11.958;2023-02-04T06:01:48;3.33;;;1.67;;
7191;SDS011;3637;51.494;11.958;2023-02-04T06:04:50;1.90;;;1.80;;
7191;SDS011;3637;51.494;11.958;2023-02-04T06:07:52;4.73;;;1.90;;
7191;SDS011;3637;51.494;11.958;2023-02-04T06:10:53;2.00;;;1.80;;
7191;SDS011;3637;51.494;11.958;2023-02-04T06:13:58;2.00;;;1.83;;
7191;SDS011;3637;51.494;11.958;2023-02-04T06:17:00;2.37;;;1.80;;
7191;SDS011;3637;51.494;11.958;2023-02-04T06:20:02;1.77;;;1.47;;
7191;SDS011;3637;51.494;11.958;2023-02-04T06:23:04;1.60;;;1.50;;
7191;SDS011;3637;51.494;11.958;2023-02-04T06:26:06;1.97;;;1.83;;
7191;SDS011;3637;51.494;11.958;2023-02-04T06:29:09;1.70;;;1.60;;
7191;SDS011;3637;51.494;11.958;2023-02-04T06:32:11;3.37;;;1.80;;
7191;SDS011;3637;51.494;11.958;2023-02-04T06:35:13;2.63;;;1.83;;
7191;SDS011;3637;51.494;11.958;2023-02-04T06:38:15;2.03;;;1.93;;
7191;SDS011;3637;51.494;11.958;2023-02-04T06:41:18;2.10;;;1.63;;
7191;SDS011;3637;51.494;11.958;2023-02-04T06:44:21;3.33;;;1.80;;
7191;SDS011;3637;51.494;11.958;2023-02-04T06:47:23;1.70;;;1.60;;
7191;SDS011;3637;51.494;11.958;2023-02-04T06:50:26;1.70;;;1.60;;
7191;SDS011;3637;51.494;11.958;2023-02-04T06:53:27;2.90;;;2.00;;
7191;SDS011;3637;51.494;11.958;2023-02-04T06:56:29;1.90;;;1.53;;
7191;SDS011;3637;51.494;11.958;2023-02-04T06:59:33;2.03;;;1.83;;
7191;SDS011;3637;51.494;11.958;2023-02-04T07:02:35;5.77;;;1.80;;
7191;SDS011;3637;51.494;11.958;2023-02-04T07:05:38;2.53;;;1.80;;
7191;SDS011;3637;51.494;11.958;2023-02-04T07:08:40;1.80;;;1.70;;
7191;SDS011;3637;51.494;11.958;2023-02-04T07:11:42;3.63;;;1.87;;
7191;SDS011;3637;51.494;11.958;2023-02-04T07:14:45;1.57;;;1.47;;
7191;SDS011;3637;51.494;11.958;2023-02-04T07:17:47;1.67;;;1.57;;
7191;SDS011;3637;51.494;11.958;2023-02-04T07:20:48;4.87;;;2.20;;
7191;SDS011;3637;51.494;11.958;2023-02-04T07:23:51;1.70;;;1.60;;
7191;SDS011;3637;51.494;11.958;2023-02-04T07:26:53;1.70;;;1.60;;
7191;SDS011;3637;51.494;11.958;2023-02-04T07:29:56;4.17;;;1.90;;
7191;SDS011;3637;51.494;11.958;2023-02-04T07:32:57;1.90;;;1.80;;
7191;SDS011;3637;51.494;11.958;2023-02-04T07:35:59;2.33;;;2.00;;
7191;SDS011;3637;51.494;11.958;2023-02-04T07:39:01;2.10;;;1.90;;
7191;SDS011;3637;51.494;11.958;2023-02-04T07:42:06;2.97;;;1.90;;
7191;SDS011;3637;51.494;11.958;2023-02-04T07:45:09;1.83;;;1.73;;
7191;SDS011;3637;51.494;11.958;2023-02-04T07:48:16;2.93;;;1.77;;
7191;SDS011;3637;51.494;11.958;2023-02-04T07:51:17;3.30;;;1.70;;
7191;SDS011;3637;51.494;11.958;2023-02-04T07:54:19;2.30;;;1.63;;
7191;SDS011;3637;51.494;11.958;2023-02-04T07:57:27;3.00;;;2.00;;
7191;SDS011;3637;51.494;11.958;2023-02-04T08:00:32;1.50;;;1.40;;
7191;SDS011;3637;51.494;11.958;2023-02-04T08:03:34;3.50;;;2.00;;
7191;SDS011;3637;51.494;11.958;2023-02-04T08:06:37;2.40;;;1.80;;
7191;SDS011;3637;51.494;11.958;2023-02-04T08:09:39;3.60;;;2.17;;
7191;SDS011;3637;51.494;11.958;2023-02-04T08:12:41;3.70;;;2.00;;
7191;SDS011;3637;51.494;11.958;2023-02-04T08:15:44;2.83;;;2.40;;
7191;SDS011;3637;51.494;11.958;2023-02-04T08:18:46;2.23;;;1.90;;
7191;SDS011;3637;51.494;11.958;2023-02-04T08:21:49;2.80;;;2.13;;
7191;SDS011;3637;51.494;11.958;2023-02-04T08:24:51;3.77;;;2.10;;
7191;SDS011;3637;51.494;11.958;2023-02-04T08:27:53;1.90;;;1.80;;
7191;SDS011;3637;51.494;11.958;2023-02-04T08:30:57;3.07;;;1.80;;
7191;SDS011;3637;51.494;11.958;2023-02-04T08:33:59;2.10;;;1.90;;
7191;SDS011;3637;51.494;11.958;2023-02-04T08:37:00;2.70;;;2.03;;
7191;SDS011;3637;51.494;11.958;2023-02-04T08:40:03;3.33;;;2.50;;
7191;SDS011;3637;51.494;11.958;2023-02-04T08:43:05;2.73;;;2.00;;
7191;SDS011;3637;51.494;11.958;2023-02-04T08:46:08;2.70;;;2.00;;
7191;SDS011;3637;51.494;11.958;2023-02-04T08:49:10;3.80;;;2.20;;
7191;SDS011;3637;51.494;11.958;2023-02-04T08:52:11;2.00;;;1.80;;
7191;SDS011;3637;51.494;11.958;2023-02-04T08:55:13;1.90;;;1.80;;
7191;SDS011;3637;51.494;11.958;2023-02-04T08:58:15;1.87;;;1.77;;
7191;SDS011;3637;51.494;11.958;2023-02-04T09:01:18;1.83;;;1.60;;
7191;SDS011;3637;51.494;11.958;2023-02-04T09:04:21;2.30;;;2.07;;
7191;SDS011;3637;51.494;11.958;2023-02-04T09:07:23;3.30;;;2.03;;
7191;SDS011;3637;51.494;11.958;2023-02-04T09:10:25;2.23;;;1.80;;
7191;SDS011;3637;51.494;11.958;2023-02-04T09:13:27;3.07;;;2.20;;
7191;SDS011;3637;51.494;11.958;2023-02-04T09:16:30;2.20;;;2.00;;
7191;SDS011;3637;51.494;11.958;2023-02-04T09:19:32;2.63;;;1.90;;
7191;SDS011;3637;51.494;11.958;2023-02-04T09:22:34;2.93;;;1.93;;
7191;SDS011;3637;51.494;11.958;2023-02-04T09:25:36;2.80;;;2.03;;
7191;SDS011;3637;51.494;11.958;2023-02-04T09:28:39;3.40;;;2.00;;
7191;SDS011;3637;51.494;11.958;2023-02-04T09:31:42;2.80;;;1.80;;
7191;SDS011;3637;51.494;11.958;2023-02-04T09:34:46;2.00;;;1.60;;
7191;SDS011;3637;51.494;11.958;2023-02-04T09:37:48;4.23;;;3.23;;
7191;SDS011;3637;51.494;11.958;2023-02-04T09:40:50;2.23;;;2.10;;
7191;SDS011;3637;51.494;11.958;2023-02-04T09:43:55;1.93;;;1.80;;
7191;SDS011;3637;51.494;11.958;2023-02-04T09:46:58;2.60;;;1.80;;
7191;SDS011;3637;51.494;11.958;2023-02-04T09:50:01;5.40;;;2.23;;
7191;SDS011;3637;51.494;11.958;2023-02-04T09:53:03;2.43;;;2.23;;
7191;SDS011;3637;51.494;11.958;2023-02-04T09:56:07;2.30;;;1.83;;
7191;SDS011;3637;51.494;11.958;2023-02-04T09:59:10;2.27;;;1.90;;
7191;SDS011;3637;51.494;11.958;2023-02-04T10:02:18;1.97;;;1.80;;
7191;SDS011;3637;51.494;11.958;2023-02-04T10:05:23;1.90;;;1.60;;
7191;SDS011;3637;51.494;11.958;2023-02-04T10:08:29;2.23;;;2.13;;
7191;SDS011;3637;51.494;11.958;2023-02-04T10:11:35;4.17;;;2.57;;
7191;SDS011;3637;51.494;11.958;2023-02-04T10:14:40;2.57;;;2.23;;
7191;SDS011;3637;51.494;11.958;2023-02-04T10:17:44;4.70;;;2.73;;
7191;SDS011;3637;51.494;11.958;2023-02-04T10:20:47;3.47;;;2.40;;
7191;SDS011;3637;51.494;11.958;2023-02-04T10:23:49;4.00;;;2.50;;
7191;SDS011;3637;51.494;11.958;2023-02-04T10:26:54;2.80;;;2.50;;
7191;SDS011;3637;51.494;11.958;2023-02-04T10:30:14;4.63;;;2.00;;
7191;SDS011;3637;51.494;11.958;2023-02-04T10:33:22;2.40;;;1.80;;
7191;SDS011;3637;51.494;11.958;2023-02-04T10:36:24;2.97;;;1.90;;
7191;SDS011;3637;51.494;11.958;2023-02-04T10:39:29;2.57;;;2.37;;
7191;SDS011;3637;51.494;11.958;2023-02-04T10:42:31;5.23;;;2.40;;
7191;SDS011;3637;51.494;11.958;2023-02-04T10:45:32;2.77;;;2.00;;
7191;SDS011;3637;51.494;11.958;2023-02-04T10:48:40;2.40;;;2.20;;
7191;SDS011;3637;51.494;11.958;2023-02-04T10:51:42;2.30;;;1.83;;
7191;SDS011;3637;51.494;11.958;2023-02-04T10:54:44;2.03;;;1.83;;
7191;SDS011;3637;51.494;11.958;2023-02-04T10:57:46;1.67;;;1.57;;
7191;SDS011;3637;51.494;11.958;2023-02-04T11:00:49;2.10;;;1.90;;
7191;SDS011;3637;51.494;11.958;2023-02-04T11:03:52;2.70;;;1.90;;
7191;SDS011;3637;51.494;11.958;2023-02-04T11:06:54;2.83;;;2.10;;
7191;SDS011;3637;51.494;11.958;2023-02-04T11:09:56;2.23;;;2.10;;
7191;SDS011;3637;51.494;11.958;2023-02-04T11:12:59;2.53;;;2.23;;
7191;SDS011;3637;51.494;11.958;2023-02-04T11:16:07;1.70;;;1.57;;
7191;SDS011;3637;51.494;11.958;2023-02-04T11:19:14;2.30;;;1.87;;
7191;SDS011;3637;51.494;11.958;2023-02-04T11:22:39;2.97;;;2.20;;
7191;SDS011;3637;51.494;11.958;2023-02-04T11:25:43;2.83;;;2.13;;
7191;SDS011;3637;51.494;11.958;2023-02-04T11:28:46;2.37;;;1.83;;
7191;SDS011;3637;51.494;11.958;2023-02-04T11:31:57;2.33;;;1.60;;
7191;SDS011;3637;51.494;11.958;2023-02-04T11:35:07;1.87;;;1.60;;
7191;SDS011;3637;51.494;11.958;2023-02-04T11:38:24;1.93;;;1.70;;
7191;SDS011;3637;51.494;11.958;2023-02-04T11:41:28;1.70;;;1.50;;
7191;SDS011;3637;51.494;11.958;2023-02-04T11:44:32;2.17;;;1.70;;
7191;SDS011;3637;51.494;11.958;2023-02-04T11:47:34;3.20;;;1.90;;
7191;SDS011;3637;51.494;11.958;2023-02-04T11:50:38;1.83;;;1.73;;
7191;SDS011;3637;51.494;11.958;2023-02-04T11:53:40;1.60;;;1.50;;
7191;SDS011;3637;51.494;11.958;2023-02-04T11:56:42;1.53;;;1.43;;
7191;SDS011;3637;51.494;11.958;2023-02-04T11:59:45;3.10;;;1.90;;
7191;SDS011;3637;51.494;11.958;2023-02-04T12:02:47;1.63;;;1.53;;
7191;SDS011;3637;51.494;11.958;2023-02-04T12:05:53;3.67;;;1.87;;
7191;SDS011;3637;51.494;11.958;2023-02-04T12:09:02;3.50;;;1.80;;
7191;SDS011;3637;51.494;11.958;2023-02-04T12:12:05;4.63;;;2.27;;
7191;SDS011;3637;51.494;11.958;2023-02-04T12:15:13;2.23;;;1.70;;
7191;SDS011;3637;51.494;11.958;2023-02-04T12:18:15;1.60;;;1.50;;
7191;SDS011;3637;51.494;11.958;2023-02-04T12:21:18;3.57;;;1.87;;
7191;SDS011;3637;51.494;11.958;2023-02-04T12:24:22;2.27;;;1.90;;
7191;SDS011;3637;51.494;11.958;2023-02-04T12:27:24;1.47;;;1.37;;
7191;SDS011;3637;51.494;11.958;2023-02-04T12:30:28;1.63;;;1.53;;
7191;SDS011;3637;51.494;11.958;2023-02-04T12:33:30;1.50;;;1.40;;
7191;SDS011;3637;51.494;11.958;2023-02-04T12:36:33;2.03;;;1.43;;
7191;SDS011;3637;51.494;11.958;2023-02-04T12:39:35;4.37;;;1.70;;
7191;SDS011;3637;51.494;11.958;2023-02-04T12:42:36;2.33;;;1.70;;
7191;SDS011;3637;51.494;11.958;2023-02-04T12:45:38;1.30;;;1.20;;
7191;SDS011;3637;51.494;11.958;2023-02-04T12:48:44;1.40;;;1.30;;
7191;SDS011;3637;51.494;11.958;2023-02-04T12:51:47;1.50;;;1.40;;
7191;SDS011;3637;51.494;11.958;2023-02-04T12:54:49;2.93;;;1.57;;
7191;SDS011;3637;51.494;11.958;2023-02-04T12:57:51;5.23;;;2.10;;
7191;SDS011;3637;51.494;11.958;2023-02-04T13:00:58;1.70;;;1.60;;
7191;SDS011;3637;51.494;11.958;2023-02-04T13:04:00;1.17;;;1.17;;
7191;SDS011;3637;51.494;11.958;2023-02-04T13:07:03;3.10;;;1.83;;
7191;SDS011;3637;51.494;11.958;2023-02-04T13:10:07;3.20;;;1.97;;
7191;SDS011;3637;51.494;11.958;2023-02-04T13:13:08;2.33;;;1.40;;
7191;SDS011;3637;51.494;11.958;2023-02-04T13:16:10;2.37;;;1.60;;
7191;SDS011;3637;51.494;11.958;2023-02-04T13:19:12;2.17;;;1.80;;
7191;SDS011;3637;51.494;11.958;2023-02-04T13:22:15;2.87;;;1.57;;
7191;SDS011;3637;51.494;11.958;2023-02-04T13:25:17;2.60;;;1.77;;
7191;SDS011;3637;51.494;11.958;2023-02-04T13:28:20;1.50;;;1.40;;
7191;SDS011;3637;51.494;11.958;2023-02-04T13:31:22;1.90;;;1.53;;
7191;SDS011;3637;51.494;11.958;2023-02-04T13:34:24;1.70;;;1.53;;
7191;SDS011;3637;51.494;11.958;2023-02-04T13:37:32;1.73;;;1.30;;
7191;SDS011;3637;51.494;11.958;2023-02-04T13:40:33;1.40;;;1.30;;
7191;SDS011;3637;51.494;11.958;2023-02-04T13:43:35;5.33;;;1.57;;
7191;SDS011;3637;51.494;11.958;2023-02-04T13:46:37;2.37;;;1.53;;
7191;SDS011;3637;51.494;11.958;2023-02-04T13:49:39;2.60;;;1.63;;
7191;SDS011;3637;51.494;11.958;2023-02-04T13:52:42;1.40;;;1.30;;
7191;SDS011;3637;51.494;11.958;2023-02-04T13:55:43;1.70;;;1.60;;
7191;SDS011;3637;51.494;11.958;2023-02-04T13:58:45;2.00;;;1.63;;
7191;SDS011;3637;51.494;11.958;2023-02-04T14:01:47;1.60;;;1.50;;
7191;SDS011;3637;51.494;11.958;2023-02-04T14:04:49;1.80;;;1.70;;
7191;SDS011;3637;51.494;11.958;2023-02-04T14:07:52;1.93;;;1.73;;
7191;SDS011;3637;51.494;11.958;2023-02-04T14:10:54;1.63;;;1.53;;
7191;SDS011;3637;51.494;11.958;2023-02-04T14:13:56;3.10;;;2.13;;
7191;SDS011;3637;51.494;11.958;2023-02-04T14:16:57;5.83;;;2.80;;
7191;SDS011;3637;51.494;11.958;2023-02-04T14:19:59;2.13;;;1.63;;
7191;SDS011;3637;51.494;11.958;2023-02-04T14:23:04;2.20;;;1.60;;
7191;SDS011;3637;51.494;11.958;2023-02-04T14:26:06;1.70;;;1.60;;
7191;SDS011;3637;51.494;11.958;2023-02-04T14:29:08;2.67;;;1.77;;
7191;SDS011;3637;51.494;11.958;2023-02-04T14:32:10;2.37;;;1.80;;
7191;SDS011;3637;51.494;11.958;2023-02-04T14:35:12;1.60;;;1.50;;
7191;SDS011;3637;51.494;11.958;2023-02-04T14:38:16;1.87;;;1.60;;
7191;SDS011;3637;51.494;11.958;2023-02-04T14:41:18;2.80;;;1.83;;
7191;SDS011;3637;51.494;11.958;2023-02-04T14:44:20;2.00;;;1.80;;
7191;SDS011;3637;51.494;11.958;2023-02-04T14:47:22;1.50;;;1.40;;
7191;SDS011;3637;51.494;11.958;2023-02-04T14:50:24;2.30;;;1.50;;
7191;SDS011;3637;51.494;11.958;2023-02-04T14:53:29;1.60;;;1.50;;
7191;SDS011;3637;51.494;11.958;2023-02-04T14:56:35;3.63;;;1.70;;
7191;SDS011;3637;51.494;11.958;2023-02-04T14:59:37;2.37;;;1.70;;
7191;SDS011;3637;51.494;11.958;2023-02-04T15:02:42;1.30;;;1.30;;
7191;SDS011;3637;51.494;11.958;2023-02-04T15:05:44;1.50;;;1.40;;
7191;SDS011;3637;51.494;11.958;2023-02-04T15:08:48;1.80;;;1.53;;
7191;SDS011;3637;51.494;11.958;2023-02-04T15:11:50;3.03;;;1.60;;
7191;SDS011;3637;51.494;11.958;2023-02-04T15:14:55;2.20;;;2.00;;
7191;SDS011;3637;51.494;11.958;2023-02-04T15:17:57;2.67;;;2.03;;
7191;SDS011;3637;51.494;11.958;2023-02-04T15:20:58;1.60;;;1.50;;
7191;SDS011;3637;51.494;11.958;2023-02-04T15:24:02;1.97;;;1.77;;
7191;SDS011;3637;51.494;11.958;2023-02-04T15:27:04;1.60;;;1.50;;
7191;SDS011;3637;51.494;11.958;2023-02-04T15:30:08;2.87;;;1.60;;
7191;SDS011;3637;51.494;11.958;2023-02-04T15:33:10;1.60;;;1.50;;
7191;SDS011;3637;51.494;11.958;2023-02-04T15:36:15;1.60;;;1.50;;
7191;SDS011;3637;51.494;11.958;2023-02-04T15:39:20;2.20;;;1.60;;
7191;SDS011;3637;51.494;11.958;2023-02-04T15:42:22;2.27;;;1.70;;
7191;SDS011;3637;51.494;11.958;2023-02-04T15:45:24;1.40;;;1.30;;
7191;SDS011;3637;51.494;11.958;2023-02-04T15:48:27;1.93;;;1.30;;
7191;SDS011;3637;51.494;11.958;2023-02-04T15:51:29;1.90;;;1.80;;
7191;SDS011;3637;51.494;11.958;2023-02-04T15:54:32;2.13;;;1.80;;
7191;SDS011;3637;51.494;11.958;2023-02-04T15:57:34;3.07;;;2.20;;
7191;SDS011;3637;51.494;11.958;2023-02-04T16:00:37;1.70;;;1.60;;
7191;SDS011;3637;51.494;11.958;2023-02-04T16:03:39;3.40;;;2.17;;
7191;SDS011;3637;51.494;11.958;2023-02-04T16:06:43;3.03;;;2.13;;
7191;SDS011;3637;51.494;11.958;2023-02-04T16:09:49;3.97;;;2.50;;
7191;SDS011;3637;51.494;11.958;2023-02-04T16:12:51;3.27;;;2.00;;
7191;SDS011;3637;51.494;11.958;2023-02-04T16:15:55;5.50;;;2.30;;
7191;SDS011;3637;51.494;11.958;2023-02-04T16:18:57;3.87;;;2.10;;
7191;SDS011;3637;51.494;11.958;2023-02-04T16:21:59;2.53;;;2.00;;
7191;SDS011;3637;51.494;11.958;2023-02-04T16:25:02;2.73;;;2.03;;
7191;SDS011;3637;51.494;11.958;2023-02-04T16:28:04;5.93;;;2.73;;
7191;SDS011;3637;51.494;11.958;2023-02-04T16:31:06;3.80;;;2.83;;
7191;SDS011;3637;51.494;11.958;2023-02-04T16:34:09;4.40;;;2.90;;
7191;SDS011;3637;51.494;11.958;2023-02-04T16:37:11;2.97;;;2.43;;
7191;SDS011;3637;51.494;11.958;2023-02-04T16:40:14;3.60;;;2.40;;
7191;SDS011;3637;51.494;11.958;2023-02-04T16:43:17;3.47;;;2.63;;
7191;SDS011;3637;51.494;11.958;2023-02-04T16:46:19;4.63;;;3.10;;
7191;SDS011;3637;51.494;11.958;2023-02-04T16:49:20;5.83;;;3.60;;
7191;SDS011;3637;51.494;11.958;2023-02-04T16:52:25;5.07;;;2.90;;
7191;SDS011;3637;51.494;11.958;2023-02-04T16:55:32;3.30;;;2.30;;
7191;SDS011;3637;51.494;11.958;2023-02-04T16:58:34;3.70;;;2.50;;
7191;SDS011;3637;51.494;11.958;2023-02-04T17:01:43;6.67;;;2.23;;
7191;SDS011;3637;51.494;11.958;2023-02-04T17:05:15;2.67;;;2.10;;
7191;SDS011;3637;51.494;11.958;2023-02-04T17:08:20;2.43;;;2.23;;
7191;SDS011;3637;51.494;11.958;2023-02-04T17:11:23;3.60;;;2.40;;
7191;SDS011;3637;51.494;11.958;2023-02-04T17:14:33;5.63;;;4.40;;
7191;SDS011;3637;51.494;11.958;2023-02-04T17:17:35;3.33;;;2.60;;
7191;SDS011;3637;51.494;11.958;2023-02-04T17:20:43;2.90;;;2.60;;
7191;SDS011;3637;51.494;11.958;2023-02-04T17:23:47;5.00;;;2.47;;
7191;SDS011;3637;51.494;11.958;2023-02-04T17:26:55;2.97;;;2.37;;
7191;SDS011;3637;51.494;11.958;2023-02-04T17:29:58;2.97;;;2.40;;
7191;SDS011;3637;51.494;11.958;2023-02-04T17:33:00;2.67;;;2.20;;
7191;SDS011;3637;51.494;11.958;2023-02-04T17:36:05;3.30;;;2.53;;
7191;SDS011;3637;51.494;11.958;2023-02-04T17:39:12;2.80;;;2.60;;
7191;SDS011;3637;51.494;11.958;2023-02-04T17:42:26;7.77;;;3.30;;
7191;SDS011;3637;51.494;11.958;2023-02-04T17:45:32;4.30;;;3.17;;
7191;SDS011;3637;51.494;11.958;2023-02-04T17:48:36;7.03;;;3.33;;
7191;SDS011;3637;51.494;11.958;2023-02-04T17:51:43;5.23;;;3.97;;
7191;SDS011;3637;51.494;11.958;2023-02-04T17:54:45;7.93;;;4.63;;
7191;SDS011;3637;51.494;11.958;2023-02-04T17:57:51;6.57;;;3.97;;
7191;SDS011;3637;51.494;11.958;2023-02-04T18:00:56;7.70;;;4.40;;
7191;SDS011;3637;51.494;11.958;2023-02-04T18:04:00;7.17;;;4.03;;
7191;SDS011;3637;51.494;11.958;2023-02-04T18:07:09;10.73;;;6.30;;
7191;SDS011;3637;51.494;11.958;2023-02-04T18:13:28;9.10;;;5.80;;
7191;SDS011;3637;51.494;11.958;2023-02-04T18:16:38;6.20;;;4.50;;
7191;SDS011;3637;51.494;11.958;2023-02-04T18:20:05;12.07;;;4.93;;
7191;SDS011;3637;51.494;11.958;2023-02-04T18:23:31;7.13;;;5.77;;
7191;SDS011;3637;51.494;11.958;2023-02-04T18:26:50;8.20;;;4.73;;
7191;SDS011;3637;51.494;11.958;2023-02-04T18:29:56;10.37;;;5.27;;
7191;SDS011;3637;51.494;11.958;2023-02-04T18:33:04;13.30;;;6.07;;
7191;SDS011;3637;51.494;11.958;2023-02-04T18:36:21;5.73;;;3.87;;
7191;SDS011;3637;51.494;11.958;2023-02-04T18:39:27;8.23;;;4.97;;
7191;SDS011;3637;51.494;11.958;2023-02-04T18:42:35;10.40;;;5.53;;
7191;SDS011;3637;51.494;11.958;2023-02-04T18:45:46;6.40;;;4.63;;